createdAt,value
2018-12-02T00:01:16.495Z,98818.45
2018-12-02T00:03:43.894Z,98798.74
2018-12-02T00:06:12.254Z,98794.63
2018-12-02T00:08:39.934Z,98795.79
2018-12-02T00:11:07.231Z,98792.66
2018-12-02T00:13:34.615Z,98779.37
2018-12-02T00:16:02.285Z,98773.55
2018-12-02T00:18:29.648Z,98772.59
2018-12-02T00:20:57.741Z,98765.95
2018-12-02T00:23:26.576Z,98772.08
2018-12-02T00:25:56.670Z,98774.73
2018-12-02T00:28:24.004Z,98762.44
2018-12-02T00:30:52.575Z,98761.97
2018-12-02T00:33:20.797Z,98747.96
2018-12-02T00:35:48.152Z,98762.10
2018-12-02T00:38:15.968Z,98752.29
2018-12-02T00:40:43.309Z,98754.47
2018-12-02T00:43:11.503Z,98751.81
2018-12-02T00:45:39.619Z,98750.01
2018-12-02T00:48:06.972Z,98746.02
2018-12-02T00:50:34.360Z,98743.37
2018-12-02T00:53:02.043Z,98741.53
2018-12-02T00:55:30.651Z,98744.19
2018-12-02T00:57:58.041Z,98740.20
2018-12-02T01:00:25.905Z,98738.05
2018-12-02T01:02:53.208Z,98738.39
2018-12-02T01:05:20.499Z,98729.57
2018-12-02T01:07:48.197Z,98723.61
2018-12-02T01:10:15.539Z,98723.00
2018-12-02T01:12:43.663Z,98718.16
2018-12-02T01:15:11.553Z,98712.37
2018-12-02T01:17:38.884Z,98701.23
2018-12-02T01:20:07.619Z,98699.91
2018-12-02T01:22:35.398Z,98689.61
2018-12-02T01:25:02.735Z,98682.49
2018-12-02T01:27:30.065Z,98696.46
2018-12-02T01:29:57.786Z,98684.84
2018-12-02T01:32:25.430Z,98687.84
2018-12-02T01:34:52.752Z,98661.64
2018-12-02T01:37:20.567Z,98657.66
2018-12-02T01:39:47.874Z,98660.31
2018-12-02T01:42:15.179Z,98666.11
2018-12-02T01:44:42.914Z,98651.48
2018-12-02T01:47:10.271Z,98646.52
2018-12-02T01:49:37.613Z,98648.19
2018-12-02T01:52:05.415Z,98640.55
2018-12-02T01:54:32.735Z,98650.70
2018-12-02T01:57:00.683Z,98648.39
2018-12-02T01:59:28.386Z,98629.64
2018-12-02T02:01:55.760Z,98627.80
2018-12-02T02:04:23.109Z,98627.80
2018-12-02T02:06:50.770Z,98621.16
2018-12-02T02:09:18.082Z,98618.16
2018-12-02T02:11:45.492Z,98609.03
2018-12-02T02:14:13.129Z,98612.50
2018-12-02T02:16:40.452Z,98611.38
2018-12-02T02:19:07.806Z,98605.92
2018-12-02T02:21:35.510Z,98604.94
2018-12-02T02:24:02.815Z,98600.61
2018-12-02T02:26:30.167Z,98582.68
2018-12-02T02:28:57.923Z,98587.86
2018-12-02T02:31:25.174Z,98566.08
2018-12-02T02:33:52.389Z,98563.77
2018-12-02T02:36:20.066Z,98563.77
2018-12-02T02:38:47.299Z,98574.56
2018-12-02T02:41:14.491Z,98567.27
2018-12-02T02:43:44.226Z,98552.52
2018-12-02T02:46:11.505Z,98542.04
2018-12-02T02:48:38.775Z,98540.23
2018-12-02T02:51:06.519Z,98528.13
2018-12-02T02:53:33.831Z,98542.75
2018-12-02T02:56:01.136Z,98527.61
2018-12-02T02:58:28.948Z,98523.63
2018-12-02T03:00:56.246Z,98523.48
2018-12-02T03:03:23.574Z,98516.33
2018-12-02T03:05:50.965Z,98512.00
2018-12-02T03:08:18.824Z,98506.55
2018-12-02T03:10:47.998Z,98490.45
2018-12-02T03:13:15.335Z,98494.63
2018-12-02T03:15:42.659Z,98493.13
2018-12-02T03:18:10.315Z,98496.64
2018-12-02T03:20:37.607Z,98490.33
2018-12-02T03:23:05.082Z,98484.02
2018-12-02T03:25:32.575Z,98482.55
2018-12-02T03:27:59.902Z,98484.69
2018-12-02T03:30:27.245Z,98480.36
2018-12-02T03:32:54.621Z,98480.54
2018-12-02T03:35:22.275Z,98487.33
2018-12-02T03:37:50.298Z,98479.83
2018-12-02T03:40:17.621Z,98476.36
2018-12-02T03:42:45.312Z,98469.20
2018-12-02T03:45:12.700Z,98466.52
2018-12-02T03:47:40.012Z,98468.94
2018-12-02T03:50:07.345Z,98467.72
2018-12-02T03:52:35.912Z,98470.92
2018-12-02T03:55:03.242Z,98459.02
2018-12-02T03:57:30.654Z,98456.75
2018-12-02T03:59:58.465Z,98460.05
2018-12-02T04:02:25.822Z,98464.62
2018-12-02T04:04:53.125Z,98451.80
2018-12-02T04:07:20.455Z,98463.69
2018-12-02T04:09:48.232Z,98440.58
2018-12-02T04:12:15.548Z,98447.19
2018-12-02T04:14:42.896Z,98440.35
2018-12-02T04:17:10.214Z,98445.94
2018-12-02T04:19:37.813Z,98438.28
2018-12-02T04:22:05.135Z,98431.79
2018-12-02T04:24:32.503Z,98433.63
2018-12-02T04:26:59.853Z,98420.49
2018-12-02T04:29:27.164Z,98428.11
2018-12-02T04:31:54.529Z,98418.15
2018-12-02T04:34:22.193Z,98426.59
2018-12-02T04:36:49.512Z,98424.08
2018-12-02T04:39:16.847Z,98425.41
2018-12-02T04:41:44.213Z,98420.60
2018-12-02T04:44:12.732Z,98413.12
2018-12-02T04:46:40.099Z,98407.33
2018-12-02T04:49:07.441Z,98407.33
2018-12-02T04:51:35.206Z,98406.48
2018-12-02T04:54:02.575Z,98402.84
2018-12-02T04:56:29.883Z,98399.84
2018-12-02T04:58:57.586Z,98403.34
2018-12-02T05:01:24.928Z,98394.88
2018-12-02T05:03:52.320Z,98395.05
2018-12-02T05:06:19.724Z,98383.92
2018-12-02T05:08:47.403Z,98371.98
2018-12-02T05:11:14.708Z,98373.30
2018-12-02T05:13:42.019Z,98371.36
2018-12-02T05:16:09.412Z,98363.39
2018-12-02T05:18:37.266Z,98363.39
2018-12-02T05:21:04.597Z,98351.08
2018-12-02T05:23:31.907Z,98359.23
2018-12-02T05:25:59.304Z,98347.80
2018-12-02T05:28:27.465Z,98361.55
2018-12-02T05:30:55.505Z,98348.63
2018-12-02T05:33:22.830Z,98350.28
2018-12-02T05:35:51.458Z,98345.83
2018-12-02T05:38:18.812Z,98349.80
2018-12-02T05:40:46.148Z,98352.46
2018-12-02T05:43:13.452Z,98349.66
2018-12-02T05:45:41.133Z,98339.86
2018-12-02T05:48:08.471Z,98335.06
2018-12-02T05:50:35.821Z,98344.19
2018-12-02T05:53:03.503Z,98326.92
2018-12-02T05:55:31.135Z,98331.76
2018-12-02T05:57:58.491Z,98336.92
2018-12-02T06:00:25.776Z,98332.44
2018-12-02T06:02:53.155Z,98325.94
2018-12-02T06:05:21.024Z,98324.61
2018-12-02T06:07:48.362Z,98322.66
2018-12-02T06:10:15.712Z,98310.86
2018-12-02T06:12:44.523Z,98310.72
2018-12-02T06:15:12.194Z,98305.89
2018-12-02T06:17:39.510Z,98304.56
2018-12-02T06:20:06.789Z,98303.09
2018-12-02T06:22:34.131Z,98299.78
2018-12-02T06:25:01.857Z,98283.84
2018-12-02T06:27:29.152Z,98273.09
2018-12-02T06:29:56.509Z,98270.09
2018-12-02T06:32:23.888Z,98269.59
2018-12-02T06:34:51.543Z,98265.60
2018-12-02T06:37:18.856Z,98276.73
2018-12-02T06:39:46.187Z,98274.27
2018-12-02T06:42:13.514Z,98267.63
2018-12-02T06:44:41.191Z,98270.11
2018-12-02T06:47:08.477Z,98263.81
2018-12-02T06:49:35.816Z,98264.52
2018-12-02T06:52:03.575Z,98264.34
2018-12-02T06:54:36.231Z,98272.16
2018-12-02T06:57:03.547Z,98268.03
2018-12-02T06:59:30.872Z,98272.02
2018-12-02T07:01:58.513Z,98275.34
2018-12-02T07:04:26.224Z,98275.82
2018-12-02T07:06:53.730Z,98271.69
2018-12-02T07:09:21.056Z,98274.34
2018-12-02T07:11:49.454Z,98271.55
2018-12-02T07:14:17.276Z,98271.41
2018-12-02T07:16:44.709Z,98267.24
2018-12-02T07:19:12.034Z,98276.39
2018-12-02T07:21:39.351Z,98265.26
2018-12-02T07:24:07.742Z,98262.13
2018-12-02T07:26:35.061Z,98260.31
2018-12-02T07:29:02.372Z,98262.45
2018-12-02T07:31:29.695Z,98246.38
2018-12-02T07:33:57.044Z,98250.70
2018-12-02T07:36:25.314Z,98247.89
2018-12-02T07:38:52.714Z,98235.94
2018-12-02T07:41:20.056Z,98235.28
2018-12-02T07:43:47.707Z,98235.95
2018-12-02T07:46:16.427Z,98239.94
2018-12-02T07:48:43.976Z,98236.28
2018-12-02T07:51:11.320Z,98244.95
2018-12-02T07:53:38.979Z,98244.30
2018-12-02T07:56:06.272Z,98246.80
2018-12-02T07:58:33.624Z,98231.20
2018-12-02T08:01:01.384Z,98239.36
2018-12-02T08:03:28.674Z,98236.19
2018-12-02T08:05:56.529Z,98232.39
2018-12-02T08:08:24.143Z,98219.95
2018-12-02T08:10:55.570Z,98235.72
2018-12-02T08:13:22.959Z,98219.48
2018-12-02T08:15:50.577Z,98202.20
2018-12-02T08:18:17.936Z,98217.82
2018-12-02T08:20:45.245Z,98223.17
2018-12-02T08:23:12.980Z,98217.20
2018-12-02T08:25:41.001Z,98219.04
2018-12-02T08:28:08.601Z,98216.57
2018-12-02T08:30:37.355Z,98216.72
2018-12-02T08:33:04.647Z,98211.11
2018-12-02T08:35:31.985Z,98211.77
2018-12-02T08:37:59.676Z,98224.91
2018-12-02T08:40:27.013Z,98211.33
2018-12-02T08:42:54.385Z,98212.98
2018-12-02T08:45:22.892Z,98215.83
2018-12-02T08:47:50.519Z,98221.66
2018-12-02T08:50:17.851Z,98219.66
2018-12-02T08:52:46.380Z,98214.04
2018-12-02T08:55:14.951Z,98210.38
2018-12-02T08:57:43.102Z,98220.36
2018-12-02T09:00:11.576Z,98218.75
2018-12-02T09:02:38.915Z,98219.42
2018-12-02T09:05:06.220Z,98214.28
2018-12-02T09:07:33.968Z,98210.47
2018-12-02T09:10:01.385Z,98211.47
2018-12-02T09:12:28.841Z,98199.67
2018-12-02T09:14:57.000Z,98202.18
2018-12-02T09:17:24.279Z,98207.65
2018-12-02T09:19:52.592Z,98218.47
2018-12-02T09:22:22.356Z,98211.84
2018-12-02T09:24:49.661Z,98212.50
2018-12-02T09:27:16.996Z,98201.22
2018-12-02T09:29:44.767Z,98207.53
2018-12-02T09:32:12.068Z,98203.23
2018-12-02T09:39:50.711Z,98216.86
2018-12-02T09:42:19.267Z,98216.55
2018-12-02T09:44:48.567Z,98216.04
2018-12-02T09:47:17.558Z,98216.37
2018-12-02T09:49:44.883Z,98223.72
2018-12-02T09:52:14.585Z,98219.72
2018-12-02T09:54:43.624Z,98220.53
2018-12-02T09:57:11.885Z,98223.53
2018-12-02T09:59:41.379Z,98217.06
2018-12-02T10:02:08.698Z,98220.53
2018-12-02T10:04:38.647Z,98210.89
2018-12-02T10:09:44.590Z,98207.56
2018-12-02T10:12:11.957Z,98207.92
2018-12-02T10:14:39.771Z,98212.88
2018-12-02T10:17:11.605Z,98213.55
2018-12-02T10:19:40.265Z,98216.37
2018-12-02T10:22:12.327Z,98223.54
2018-12-02T10:24:40.649Z,98211.72
2018-12-02T10:27:07.998Z,98207.05
2018-12-02T10:29:35.817Z,98191.60
2018-12-02T10:32:03.154Z,98206.90
2018-12-02T10:34:30.524Z,98195.94
2018-12-02T10:36:58.344Z,98202.58
2018-12-02T10:39:25.673Z,98207.56
2018-12-02T10:41:53.817Z,98202.59
2018-12-02T10:44:22.625Z,98206.41
2018-12-02T10:46:50.655Z,98211.91
2018-12-02T10:49:17.999Z,98212.23
2018-12-02T10:51:46.518Z,98208.56
2018-12-02T10:54:13.937Z,98211.92
2018-12-02T10:56:41.529Z,98207.25
2018-12-02T10:59:13.209Z,98213.56
2018-12-02T11:01:44.272Z,98204.27
2018-12-02T11:05:14.817Z,98201.58
2018-12-02T11:07:42.428Z,98199.61
2018-12-02T11:10:17.385Z,98202.59
2018-12-02T11:12:45.207Z,98204.91
2018-12-02T11:15:23.134Z,98206.26
2018-12-02T11:17:53.019Z,98194.25
2018-12-02T11:20:20.699Z,98193.94
2018-12-02T11:22:48.889Z,98192.74
2018-12-02T11:25:16.632Z,98187.77
2018-12-02T11:27:44.783Z,98193.76
2018-12-02T11:30:12.284Z,98189.73
2018-12-02T11:32:39.975Z,98189.23
2018-12-02T11:35:07.281Z,98189.23
2018-12-02T11:37:34.612Z,98186.39
2018-12-02T11:40:02.468Z,98184.41
2018-12-02T11:42:29.795Z,98188.21
2018-12-02T11:44:57.117Z,98192.86
2018-12-02T11:47:26.318Z,98188.38
2018-12-02T11:49:53.673Z,98194.88
2018-12-02T11:52:21.007Z,98199.20
2018-12-02T11:54:49.493Z,98192.02
2018-12-02T11:57:16.844Z,98198.04
2018-12-02T11:59:46.113Z,98194.20
2018-12-02T12:02:14.587Z,98193.86
2018-12-02T12:04:42.723Z,98191.03
2018-12-02T12:07:10.051Z,98189.34
2018-12-02T12:09:37.867Z,98194.52
2018-12-02T12:12:05.270Z,98190.84
2018-12-02T12:14:34.843Z,98189.86
2018-12-02T12:17:02.632Z,98197.18
2018-12-02T12:19:32.519Z,98197.51
2018-12-02T12:21:59.866Z,98199.00
2018-12-02T12:24:27.661Z,98208.50
2018-12-02T12:26:55.041Z,98207.66
2018-12-02T12:29:23.402Z,98206.81
2018-12-02T12:31:51.046Z,98207.95
2018-12-02T12:34:18.493Z,98201.29
2018-12-02T12:36:45.859Z,98206.59
2018-12-02T12:39:13.593Z,98213.09
2018-12-02T12:41:41.012Z,98215.56
2018-12-02T12:44:09.901Z,98211.05
2018-12-02T12:46:37.795Z,98213.02
2018-12-02T12:49:05.166Z,98215.81
2018-12-02T12:51:32.489Z,98211.61
2018-12-02T12:54:00.649Z,98211.93
2018-12-02T12:56:28.263Z,98214.39
2018-12-02T12:58:56.772Z,98208.84
2018-12-02T13:01:25.474Z,98212.48
2018-12-02T13:03:53.084Z,98215.10
2018-12-02T13:06:20.704Z,98218.09
2018-12-02T13:08:48.782Z,98225.73
2018-12-02T13:11:16.394Z,98224.70
2018-12-02T13:13:45.044Z,98224.34
2018-12-02T13:16:12.996Z,98232.34
2018-12-02T13:18:40.700Z,98218.30
2018-12-02T13:21:09.888Z,98238.48
2018-12-02T13:23:37.988Z,98231.47
2018-12-02T13:26:05.627Z,98236.94
2018-12-02T13:28:34.509Z,98247.62
2018-12-02T13:31:02.687Z,98237.94
2018-12-02T13:33:31.120Z,98247.92
2018-12-02T13:35:58.707Z,98242.59
2018-12-02T13:38:26.652Z,98244.56
2018-12-02T13:40:55.503Z,98254.23
2018-12-02T13:43:26.563Z,98251.40
2018-12-02T13:45:54.520Z,98254.72
2018-12-02T13:48:21.916Z,98253.56
2018-12-02T13:50:49.727Z,98259.23
2018-12-02T13:53:18.396Z,98257.90
2018-12-02T13:55:45.747Z,98251.54
2018-12-02T13:58:13.088Z,98266.23
2018-12-02T14:00:41.805Z,98257.23
2018-12-02T14:03:10.166Z,98266.91
2018-12-02T14:05:37.521Z,98268.25
2018-12-02T14:08:05.288Z,98271.24
2018-12-02T14:10:33.369Z,98275.57
2018-12-02T14:13:00.702Z,98279.91
2018-12-02T14:15:29.056Z,98273.05
2018-12-02T14:17:56.347Z,98277.39
2018-12-02T14:20:25.444Z,98279.21
2018-12-02T14:22:55.311Z,98280.55
2018-12-02T14:25:22.680Z,98283.74
2018-12-02T14:27:52.005Z,98292.08
2018-12-02T14:30:19.955Z,98289.90
2018-12-02T14:32:48.231Z,98300.79
2018-12-02T14:35:18.769Z,98301.11
2018-12-02T14:40:39.402Z,98302.62
2018-12-02T14:43:08.119Z,98308.81
2018-12-02T14:45:35.461Z,98306.45
2018-12-02T14:48:02.929Z,98308.28
2018-12-02T14:50:30.592Z,98300.95
2018-12-02T14:52:57.965Z,98308.81
2018-12-02T14:55:25.305Z,98318.16
2018-12-02T14:57:53.813Z,98319.98
2018-12-02T15:00:21.364Z,98318.16
2018-12-02T15:02:49.380Z,98322.98
2018-12-02T15:05:18.108Z,98327.68
2018-12-02T15:07:45.513Z,98342.38
2018-12-02T15:10:15.168Z,98346.06
2018-12-02T15:12:42.962Z,98339.55
2018-12-02T15:15:10.307Z,98337.05
2018-12-02T15:17:37.619Z,98337.23
2018-12-02T15:20:05.324Z,98336.92
2018-12-02T15:22:32.677Z,98349.89
2018-12-02T15:25:00.373Z,98343.89
2018-12-02T15:27:29.540Z,98341.42
2018-12-02T15:29:56.900Z,98340.25
2018-12-02T15:32:24.264Z,98345.27
2018-12-02T15:34:52.009Z,98344.42
2018-12-02T15:37:19.355Z,98343.25
2018-12-02T15:39:46.667Z,98337.91
2018-12-02T15:42:14.398Z,98338.11
2018-12-02T15:44:41.783Z,98342.12
2018-12-02T15:47:09.121Z,98350.78
2018-12-02T15:49:36.997Z,98350.78
2018-12-02T15:52:05.729Z,98357.47
2018-12-02T15:54:34.585Z,98356.13
2018-12-02T15:57:03.253Z,98354.80
2018-12-02T15:59:31.571Z,98349.65
2018-12-02T16:01:58.926Z,98350.78
2018-12-02T16:04:29.798Z,98356.66
2018-12-02T16:06:57.252Z,98352.48
2018-12-02T16:09:25.364Z,98353.30
2018-12-02T16:11:56.043Z,98359.16
2018-12-02T16:14:24.540Z,98349.81
2018-12-02T16:16:54.254Z,98357.30
2018-12-02T16:19:27.014Z,98354.95
2018-12-02T16:21:54.350Z,98358.63
2018-12-02T16:24:21.692Z,98360.82
2018-12-02T16:26:52.734Z,98358.15
2018-12-02T16:29:20.099Z,98357.63
2018-12-02T16:31:47.445Z,98360.13
2018-12-02T16:34:16.849Z,98355.80
2018-12-02T16:36:44.800Z,98353.62
2018-12-02T16:39:13.268Z,98363.81
2018-12-02T16:41:41.020Z,98364.63
2018-12-02T16:44:09.705Z,98362.31
2018-12-02T16:46:37.019Z,98365.97
2018-12-02T16:49:04.772Z,98363.81
2018-12-02T16:51:32.275Z,98367.66
2018-12-02T16:54:00.385Z,98367.83
2018-12-02T16:56:28.525Z,98365.97
2018-12-02T16:58:56.664Z,98374.83
2018-12-02T17:01:24.827Z,98372.48
2018-12-02T17:03:53.812Z,98363.13
2018-12-02T17:06:21.531Z,98361.30
2018-12-02T17:08:51.080Z,98367.46
2018-12-02T17:11:21.812Z,98369.13
2018-12-02T17:13:49.677Z,98373.81
2018-12-02T17:16:17.029Z,98373.81
2018-12-02T17:18:44.696Z,98368.27
2018-12-02T17:21:12.059Z,98381.46
2018-12-02T17:23:41.584Z,98372.47
2018-12-02T17:26:09.613Z,98379.99
2018-12-02T17:28:38.161Z,98373.80
2018-12-02T17:31:05.645Z,98376.80
2018-12-02T17:33:33.461Z,98372.62
2018-12-02T17:36:00.776Z,98374.77
2018-12-02T17:38:28.095Z,98376.63
2018-12-02T17:40:57.853Z,98373.43
2018-12-02T17:43:25.973Z,98372.94
2018-12-02T17:45:53.316Z,98369.75
2018-12-02T17:48:22.197Z,98376.10
2018-12-02T17:50:49.536Z,98382.62
2018-12-02T17:53:17.805Z,98378.09
2018-12-02T17:55:45.621Z,98374.08
2018-12-02T17:58:12.992Z,98382.09
2018-12-02T18:00:40.331Z,98379.42
2018-12-02T18:03:09.398Z,98376.91
2018-12-02T18:05:39.333Z,98378.57
2018-12-02T18:08:09.112Z,98379.73
2018-12-02T18:10:37.751Z,98380.59
2018-12-02T18:13:05.101Z,98382.09
2018-12-02T18:15:33.103Z,98376.05
2018-12-02T18:18:01.599Z,98374.03
2018-12-02T18:20:29.013Z,98386.91
2018-12-02T18:22:56.327Z,98382.73
2018-12-02T18:25:23.980Z,98389.09
2018-12-02T18:27:51.306Z,98388.73
2018-12-02T18:30:19.340Z,98393.75
2018-12-02T18:32:49.278Z,98395.28
2018-12-02T18:35:18.273Z,98404.80
2018-12-02T18:37:45.595Z,98404.80
2018-12-02T18:40:12.933Z,98407.16
2018-12-02T18:42:40.604Z,98412.50
2018-12-02T18:45:08.954Z,98413.84
2018-12-02T18:47:36.293Z,98419.50
2018-12-02T18:50:03.724Z,98416.83
2018-12-02T18:52:33.620Z,98425.66
2018-12-02T18:55:02.289Z,98432.70
2018-12-02T18:57:30.824Z,98434.85
2018-12-02T18:59:58.585Z,98437.03
2018-12-02T19:02:26.827Z,98437.52
2018-12-02T19:04:54.135Z,98432.50
2018-12-02T19:07:22.569Z,98436.71
2018-12-02T19:09:49.935Z,98447.05
2018-12-02T19:12:17.296Z,98444.05
2018-12-02T19:14:45.356Z,98438.90
2018-12-02T19:17:13.331Z,98454.61
2018-12-02T19:19:40.688Z,98452.91
2018-12-02T19:22:08.389Z,98456.11
2018-12-02T19:24:36.608Z,98453.11
2018-12-02T19:27:05.267Z,98453.92
2018-12-02T19:29:34.012Z,98442.42
2018-12-02T19:32:01.453Z,98442.91
2018-12-02T19:34:30.352Z,98444.57
2018-12-02T19:37:06.145Z,98445.25
2018-12-02T19:39:33.510Z,98450.24
2018-12-02T19:42:03.494Z,98445.42
2018-12-02T19:44:32.488Z,98441.90
2018-12-02T19:47:00.503Z,98438.58
2018-12-02T19:49:28.789Z,98440.92
2018-12-02T19:51:57.491Z,98438.94
2018-12-02T19:54:24.802Z,98434.08
2018-12-02T19:56:53.329Z,98432.25
2018-12-02T19:59:22.739Z,98434.57
2018-12-02T20:01:51.804Z,98437.24
2018-12-02T20:04:20.319Z,98440.60
2018-12-02T20:06:49.232Z,98438.25
2018-12-02T20:09:22.249Z,98430.23
2018-12-02T20:11:50.885Z,98436.92
2018-12-02T20:14:19.627Z,98444.74
2018-12-02T20:16:48.560Z,98432.59
2018-12-02T20:19:24.507Z,98431.41
2018-12-02T20:21:54.099Z,98432.09
2018-12-02T20:24:26.825Z,98436.27
2018-12-02T20:26:57.732Z,98434.09
2018-12-02T20:29:27.563Z,98433.11
2018-12-02T20:32:02.755Z,98434.45
2018-12-02T20:34:32.591Z,98433.77
2018-12-02T20:36:59.936Z,98423.08
2018-12-02T20:39:29.355Z,98422.55
2018-12-02T20:41:59.672Z,98432.75
2018-12-02T20:44:29.258Z,98415.55
2018-12-02T20:46:57.162Z,98423.04
2018-12-02T20:49:27.518Z,98415.87
2018-12-02T20:51:55.413Z,98418.02
2018-12-02T20:54:22.812Z,98416.20
2018-12-02T20:56:50.143Z,98415.55
2018-12-02T20:59:17.987Z,98412.88
2018-12-02T21:01:46.218Z,98418.91
2018-12-02T21:04:14.505Z,98408.70
2018-12-02T21:06:41.900Z,98413.77
2018-12-02T21:09:10.461Z,98402.10
2018-12-02T21:11:40.438Z,98402.30
2018-12-02T21:14:06.244Z,98402.30
2018-12-02T21:16:33.922Z,98407.67
2018-12-02T21:19:01.226Z,98404.31
2018-12-02T21:21:28.658Z,98403.34
2018-12-02T21:23:57.376Z,98398.68
2018-12-02T21:26:24.824Z,98392.49
2018-12-02T21:28:52.176Z,98395.00
2018-12-02T21:31:19.911Z,98401.34
2018-12-02T21:33:51.483Z,98400.83
2018-12-02T21:36:21.143Z,98391.48
2018-12-02T21:38:48.805Z,98398.68
2018-12-02T21:41:16.135Z,98396.98
2018-12-02T21:43:44.071Z,98396.98
2018-12-02T21:46:11.793Z,98392.16
2018-12-02T21:48:39.143Z,98391.64
2018-12-02T21:51:06.502Z,98383.31
2018-12-02T21:53:34.165Z,98379.83
2018-12-02T21:56:01.588Z,98379.30
2018-12-02T21:58:28.896Z,98381.65
2018-12-02T22:01:01.985Z,98384.64
2018-12-02T22:03:29.333Z,98389.17
2018-12-02T22:05:56.705Z,98391.32
2018-12-02T22:08:26.292Z,98379.63
2018-12-02T22:10:53.670Z,98370.64
2018-12-02T22:13:21.020Z,98374.45
2018-12-02T22:15:48.639Z,98369.63
2018-12-02T22:18:20.411Z,98376.31
2018-12-02T22:20:49.646Z,98376.96
2018-12-02T22:23:18.569Z,98374.65
2018-12-02T22:25:48.478Z,98374.97
2018-12-02T22:28:15.793Z,98381.30
2018-12-02T22:30:43.493Z,98376.96
2018-12-02T22:33:10.860Z,98379.27
2018-12-02T22:35:38.407Z,98378.42
2018-12-02T22:38:06.302Z,98372.92
2018-12-02T22:40:33.693Z,98373.89
2018-12-02T22:43:01.082Z,98375.39
2018-12-02T22:45:28.947Z,98375.39
2018-12-02T22:47:57.608Z,98376.20
2018-12-02T22:50:24.943Z,98379.40
2018-12-02T22:52:52.713Z,98373.89
2018-12-02T22:55:22.001Z,98374.05
2018-12-02T22:57:49.351Z,98373.89
2018-12-02T23:00:18.564Z,98372.20
2018-12-02T23:02:51.111Z,98369.36
2018-12-02T23:05:19.773Z,98378.55
2018-12-02T23:07:47.730Z,98365.19
2018-12-02T23:10:15.112Z,98365.03
2018-12-02T23:12:42.437Z,98369.52
2018-12-02T23:15:09.753Z,98366.00
2018-12-02T23:17:37.414Z,98364.19
2018-12-02T23:20:04.814Z,98359.84
2018-12-02T23:22:32.149Z,98360.34
2018-12-02T23:24:59.493Z,98363.53
2018-12-02T23:27:27.233Z,98362.52
2018-12-02T23:29:54.547Z,98363.34
2018-12-02T23:32:21.875Z,98372.52
2018-12-02T23:34:49.549Z,98373.86
2018-12-02T23:37:20.588Z,98368.52
2018-12-02T23:39:45.425Z,98372.03
2018-12-02T23:42:12.744Z,98368.02
2018-12-02T23:44:40.552Z,98369.16
2018-12-02T23:47:07.911Z,98369.00
2018-12-02T23:49:35.496Z,98364.83
2018-12-02T23:52:04.484Z,98364.83
2018-12-02T23:54:32.899Z,98361.63
2018-12-02T23:57:00.219Z,98360.13
2018-12-02T23:59:27.507Z,98357.46
